Time;durP1;ratioP1;P1;durP2;ratioP2;P2;SDS_P1;SDS_P2;PMS_P1;PMS_P2;Temp;Humidity;BMP_temperature;BMP_pressure;BME280_temperature;BME280_humidity;BME280_pressure;Samples;Min_cycle;Max_cycle;Signal;HPM_P1;HPM_P2
2021/07/08 00:00:20;;;;;;;0.38;0.20;;;;;;;-142.37;100.00;59669.53;5055401;28;20080;-58
2021/07/08 00:02:48;;;;;;;1.13;0.15;;;;;;;-142.37;100.00;59669.53;5055443;28;20032;-58
2021/07/08 00:05:15;;;;;;;0.52;0.30;;;;;;;-142.37;100.00;59669.53;5055133;28;20024;-59
2021/07/08 00:07:41;;;;;;;0.65;0.15;;;;;;;-142.37;100.00;59669.53;5055311;28;20029;-59
2021/07/08 00:10:10;;;;;;;0.80;0.30;;;;;;;-142.37;100.00;59669.53;5055030;28;20025;-58
2021/07/08 00:12:35;;;;;;;1.65;0.40;;;;;;;-142.37;100.00;59669.53;5055081;28;20468;-59
2021/07/08 00:15:01;;;;;;;0.20;0.10;;;;;;;-142.37;100.00;59669.53;5055092;28;20052;-59
2021/07/08 00:17:26;;;;;;;0.60;0.30;;;;;;;-142.37;100.00;59669.53;5055138;28;20032;-59
2021/07/08 00:19:52;;;;;;;0.60;0.20;;;;;;;-142.37;100.00;59669.53;5055038;28;20379;-58
2021/07/08 00:22:17;;;;;;;1.17;0.45;;;;;;;-142.37;100.00;59669.53;5054972;28;20029;-57
2021/07/08 00:24:42;;;;;;;2.00;0.30;;;;;;;-142.37;100.00;59669.53;5054933;28;20047;-58
2021/07/08 00:27:08;;;;;;;1.02;0.32;;;;;;;-142.37;100.00;59669.53;5054776;28;20028;-58
2021/07/08 00:29:34;;;;;;;0.50;0.30;;;;;;;-142.37;100.00;59669.53;5054747;28;20033;-58
2021/07/08 00:32:00;;;;;;;0.35;0.30;;;;;;;-142.37;100.00;59669.53;5054427;28;20039;-58
2021/07/08 00:34:25;;;;;;;0.65;0.30;;;;;;;-142.37;100.00;59669.53;5054707;28;20383;-58
2021/07/08 00:36:50;;;;;;;0.50;0.40;;;;;;;-142.37;100.00;59669.53;5053695;28;20086;-59
2021/07/08 00:39:16;;;;;;;0.60;0.30;;;;;;;-142.37;100.00;59669.53;5053540;28;20530;-59
2021/07/08 00:41:42;;;;;;;1.20;0.45;;;;;;;-142.37;100.00;59669.53;5054335;28;20480;-57
2021/07/08 00:44:08;;;;;;;0.57;0.20;;;;;;;-142.37;100.00;59669.53;5054177;28;20025;-58
2021/07/08 00:46:33;;;;;;;1.30;0.43;;;;;;;-142.37;100.00;59669.53;5054582;28;20482;-59
2021/07/08 00:48:59;;;;;;;1.65;0.30;;;;;;;-142.37;100.00;59669.53;5054360;28;20029;-59
2021/07/08 00:51:24;;;;;;;2.00;0.30;;;;;;;-142.37;100.00;59669.53;5054555;28;20056;-58
2021/07/08 00:53:49;;;;;;;0.52;0.20;;;;;;;-142.37;100.00;59669.53;5054236;28;20029;-58
2021/07/08 00:56:15;;;;;;;1.25;0.55;;;;;;;-142.37;100.00;59669.53;5052968;28;20021;-59
2021/07/08 00:58:45;;;;;;;0.63;0.40;;;;;;;-142.37;100.00;59669.53;5054253;28;20040;-59
2021/07/08 01:01:11;;;;;;;1.33;0.38;;;;;;;-142.37;100.00;59669.53;5053961;28;20025;-59
2021/07/08 01:03:36;;;;;;;0.63;0.38;;;;;;;-142.37;100.00;59669.53;5054344;28;20025;-59
2021/07/08 01:06:02;;;;;;;0.10;0.10;;;;;;;-142.37;100.00;59669.53;5054081;28;20357;-58
2021/07/08 01:08:28;;;;;;;1.92;0.40;;;;;;;-142.37;100.00;59669.53;5054004;28;20040;-60
2021/07/08 01:10:53;;;;;;;0.73;0.30;;;;;;;-142.37;100.00;59669.53;5053966;28;20380;-60
2021/07/08 01:13:20;;;;;;;0.20;0.20;;;;;;;-142.37;100.00;59669.53;5053099;28;20067;-59
2021/07/08 01:15:46;;;;;;;0.45;0.20;;;;;;;-142.37;100.00;59669.53;5053946;28;20028;-58
2021/07/08 01:18:12;;;;;;;1.13;0.40;;;;;;;-142.37;100.00;59669.53;5053655;28;20021;-60
2021/07/08 01:20:39;;;;;;;0.50;0.40;;;;;;;-142.37;100.00;59669.53;5053608;28;20039;-60
2021/07/08 01:23:04;;;;;;;0.52;0.30;;;;;;;-142.37;100.00;59669.53;5053650;28;20443;-59
2021/07/08 01:25:33;;;;;;;0.63;0.28;;;;;;;-142.37;100.00;59669.53;5053741;28;20048;-59
2021/07/08 01:28:00;;;;;;;0.77;0.30;;;;;;;-142.37;100.00;59669.53;5053513;28;20381;-60
2021/07/08 01:30:27;;;;;;;0.22;0.20;;;;;;;-142.37;100.00;59669.53;5053453;28;20017;-59
2021/07/08 01:32:54;;;;;;;0.90;0.30;;;;;;;-142.37;100.00;59669.53;5053621;28;20589;-60
2021/07/08 01:35:19;;;;;;;0.40;0.30;;;;;;;-142.37;100.00;59669.53;5053505;28;20014;-59
2021/07/08 01:37:45;;;;;;;1.00;0.30;;;;;;;-142.37;100.00;59669.53;5053654;28;20029;-59
2021/07/08 01:40:14;;;;;;;1.10;0.20;;;;;;;-142.37;100.00;59669.53;5053520;28;20029;-59
2021/07/08 01:42:40;;;;;;;1.02;0.30;;;;;;;-142.37;100.00;59669.53;5052807;28;20033;-59
2021/07/08 01:45:07;;;;;;;0.90;0.25;;;;;;;-142.37;100.00;59669.53;5051765;28;20029;-58
2021/07/08 01:47:32;;;;;;;0.90;0.22;;;;;;;-142.37;100.00;59669.53;5053373;28;20074;-59
2021/07/08 01:49:58;;;;;;;0.55;0.35;;;;;;;-142.37;100.00;59669.53;5052228;28;20024;-59
2021/07/08 01:52:24;;;;;;;0.63;0.20;;;;;;;-142.37;100.00;59669.53;5053289;28;20403;-59
2021/07/08 01:54:49;;;;;;;0.90;0.10;;;;;;;-142.37;100.00;59669.53;5051849;28;20520;-59
2021/07/08 01:57:14;;;;;;;1.65;0.30;;;;;;;-142.37;100.00;59669.53;5053231;28;20111;-60
2021/07/08 01:59:40;;;;;;;0.43;0.20;;;;;;;-142.37;100.00;59669.53;5053061;28;20048;-59
2021/07/08 02:02:05;;;;;;;0.85;0.30;;;;;;;-142.37;100.00;59669.53;5052987;28;20020;-59
2021/07/08 02:04:31;;;;;;;1.13;0.30;;;;;;;-142.37;100.00;59669.53;5053057;28;20061;-59
2021/07/08 02:06:56;;;;;;;0.73;0.40;;;;;;;-142.37;100.00;59669.53;5053050;28;20472;-59
2021/07/08 02:09:21;;;;;;;1.30;0.22;;;;;;;-142.37;100.00;59669.53;5053152;28;20017;-59
2021/07/08 02:11:47;;;;;;;0.38;0.20;;;;;;;-142.37;100.00;59669.53;5052675;28;20033;-59
2021/07/08 02:14:12;;;;;;;0.85;0.32;;;;;;;-142.37;100.00;59669.53;5052996;28;20480;-59
2021/07/08 02:16:38;;;;;;;1.52;0.30;;;;;;;-142.37;100.00;59669.53;5053000;28;20021;-59
2021/07/08 02:19:05;;;;;;;2.20;0.20;;;;;;;-142.37;100.00;59669.53;5052901;28;20044;-59
2021/07/08 02:21:30;;;;;;;0.52;0.15;;;;;;;-142.37;100.00;59669.53;5052981;28;20032;-59
2021/07/08 02:23:56;;;;;;;1.05;0.20;;;;;;;-142.37;100.00;59669.53;5052849;28;20108;-59
2021/07/08 02:26:21;;;;;;;0.40;0.10;;;;;;;-142.37;100.00;59669.53;5052984;28;20033;-59
2021/07/08 02:28:46;;;;;;;0.93;0.30;;;;;;;-142.37;100.00;59669.53;5052857;28;20025;-59
2021/07/08 02:31:12;;;;;;;1.10;0.40;;;;;;;-142.37;100.00;59669.53;5052902;28;20021;-60
2021/07/08 02:33:37;;;;;;;0.68;0.17;;;;;;;-142.37;100.00;59669.53;5053085;28;20456;-59
2021/07/08 02:36:04;;;;;;;1.27;0.22;;;;;;;-142.37;100.00;59669.53;5052725;28;20039;-59
2021/07/08 02:38:30;;;;;;;0.82;0.30;;;;;;;-142.37;100.00;59669.53;5052892;28;20086;-60
2021/07/08 02:40:56;;;;;;;2.00;0.35;;;;;;;-142.37;100.00;59669.53;5052772;28;20464;-60
2021/07/08 02:43:22;;;;;;;0.93;0.40;;;;;;;-142.37;100.00;59669.53;5052745;28;20029;-58
2021/07/08 02:45:47;;;;;;;0.63;0.40;;;;;;;-142.37;100.00;59669.53;5052727;28;20484;-59
2021/07/08 02:48:16;;;;;;;0.22;0.22;;;;;;;-142.37;100.00;59669.53;5052633;28;20032;-59
2021/07/08 02:50:42;;;;;;;1.38;0.25;;;;;;;-142.37;100.00;59669.53;5052800;28;20024;-59
2021/07/08 02:53:09;;;;;;;1.15;0.60;;;;;;;-142.37;100.00;59669.53;5052618;28;20102;-59
2021/07/08 02:55:34;;;;;;;0.82;0.30;;;;;;;-142.37;100.00;59669.53;5052713;28;20021;-59
2021/07/08 02:57:59;;;;;;;0.10;0.10;;;;;;;-142.37;100.00;59669.53;5052229;28;20051;-58
2021/07/08 03:00:29;;;;;;;2.83;0.40;;;;;;;-142.37;100.00;59669.53;5052713;28;20104;-59
2021/07/08 03:02:54;;;;;;;0.98;0.35;;;;;;;-142.37;100.00;59669.53;5052643;28;20036;-59
2021/07/08 03:05:20;;;;;;;0.80;0.20;;;;;;;-142.37;100.00;59669.53;5054651;28;20029;-59
2021/07/08 03:07:46;;;;;;;0.95;0.40;;;;;;;-142.37;100.00;59669.53;5056590;28;20047;-58
2021/07/08 03:10:13;;;;;;;0.82;0.30;;;;;;;-142.37;100.00;59669.53;5056500;28;20126;-59
2021/07/08 03:12:39;;;;;;;1.98;0.40;;;;;;;-142.37;100.00;59669.53;5056437;28;20075;-59
2021/07/08 03:15:08;;;;;;;1.08;0.35;;;;;;;-142.37;100.00;59669.53;5056266;28;20455;-59
2021/07/08 03:17:33;;;;;;;0.30;0.30;;;;;;;-142.37;100.00;59669.53;5056003;28;20036;-59
2021/07/08 03:19:59;;;;;;;0.25;0.15;;;;;;;-142.37;100.00;59669.53;5055189;28;20528;-59
2021/07/08 03:22:24;;;;;;;0.25;0.25;;;;;;;-142.37;100.00;59669.53;5055094;28;20029;-59
2021/07/08 03:24:50;;;;;;;0.32;0.13;;;;;;;-142.37;100.00;59669.53;5055601;28;20021;-59
2021/07/08 03:27:15;;;;;;;0.40;0.20;;;;;;;-142.37;100.00;59669.53;5054364;28;20025;-59
2021/07/08 03:29:41;;;;;;;0.40;0.10;;;;;;;-142.37;100.00;59669.53;5054890;28;20032;-59
2021/07/08 03:32:07;;;;;;;0.45;0.20;;;;;;;-142.37;100.00;59669.53;5055963;28;20051;-59
2021/07/08 03:34:32;;;;;;;0.45;0.20;;;;;;;-142.37;100.00;59669.53;5055927;28;20074;-60
2021/07/08 03:36:58;;;;;;;0.25;0.10;;;;;;;-142.37;100.00;59669.53;5055778;28;20099;-59
2021/07/08 03:39:23;;;;;;;0.60;0.30;;;;;;;-142.37;100.00;59669.53;5055905;28;20033;-59
2021/07/08 03:41:48;;;;;;;3.30;0.30;;;;;;;-142.37;100.00;59669.53;5055806;28;20043;-59
2021/07/08 03:44:14;;;;;;;0.65;0.15;;;;;;;-142.37;100.00;59669.53;5055443;28;20056;-60
2021/07/08 03:46:39;;;;;;;2.25;0.10;;;;;;;-142.37;100.00;59669.53;5055588;28;20092;-59
2021/07/08 03:49:05;;;;;;;1.95;0.40;;;;;;;-142.37;100.00;59669.53;5055504;28;20029;-59
2021/07/08 03:51:30;;;;;;;2.28;0.20;;;;;;;-142.37;100.00;59669.53;5055485;28;20032;-59
2021/07/08 03:53:55;;;;;;;0.20;0.10;;;;;;;-142.37;100.00;59669.53;5055456;28;20050;-59
2021/07/08 03:56:21;;;;;;;0.25;0.10;;;;;;;-142.37;100.00;59669.53;5055182;28;20017;-59
2021/07/08 03:58:46;;;;;;;0.43;0.13;;;;;;;-142.37;100.00;59669.53;5054636;28;20049;-58
2021/07/08 04:01:11;;;;;;;0.55;0.10;;;;;;;-142.37;100.00;59669.53;5054381;28;20482;-64
2021/07/08 04:03:37;;;;;;;0.40;0.10;;;;;;;-142.37;100.00;59669.53;5055434;28;20112;-63
2021/07/08 04:06:02;;;;;;;0.85;0.55;;;;;;;-142.37;100.00;59669.53;5054023;28;20558;-65
2021/07/08 04:08:28;;;;;;;0.17;0.10;;;;;;;-142.37;100.00;59669.53;5055186;28;20378;-64
2021/07/08 04:10:53;;;;;;;1.52;0.10;;;;;;;-142.37;100.00;59669.53;5055333;28;20063;-64
2021/07/08 04:13:20;;;;;;;0.57;0.10;;;;;;;-142.37;100.00;59669.53;5055254;28;20033;-64
2021/07/08 04:15:48;;;;;;;0.88;0.20;;;;;;;-142.37;100.00;59669.53;5054789;28;20023;-65
2021/07/08 04:18:15;;;;;;;0.30;0.10;;;;;;;-142.37;100.00;59669.53;5054757;28;20032;-63
2021/07/08 04:20:42;;;;;;;1.08;0.28;;;;;;;-142.37;100.00;59669.53;5055271;28;20142;-63
2021/07/08 04:23:09;;;;;;;1.02;0.40;;;;;;;-142.37;100.00;59669.53;5054992;28;20021;-65
2021/07/08 04:25:34;;;;;;;1.75;0.32;;;;;;;-142.37;100.00;59669.53;5054933;28;20063;-65
2021/07/08 04:28:00;;;;;;;0.50;0.10;;;;;;;-142.37;100.00;59669.53;5054639;28;20060;-64
2021/07/08 04:30:26;;;;;;;0.63;0.25;;;;;;;-142.37;100.00;59669.53;5054052;28;20021;-63
2021/07/08 04:32:53;;;;;;;0.55;0.10;;;;;;;-142.37;100.00;59669.53;5054902;28;20497;-63
2021/07/08 04:35:21;;;;;;;0.28;0.10;;;;;;;-142.37;100.00;59669.53;5053857;28;20025;-63
2021/07/08 04:37:47;;;;;;;1.25;0.30;;;;;;;-142.37;100.00;59669.53;5055012;28;20433;-62
2021/07/08 04:40:16;;;;;;;0.40;0.08;;;;;;;-142.37;100.00;59669.53;5054675;28;20075;-62
2021/07/08 04:42:42;;;;;;;1.10;0.10;;;;;;;-142.37;100.00;59669.53;5054596;28;20460;-63
2021/07/08 04:45:10;;;;;;;0.30;0.10;;;;;;;-142.37;100.00;59669.53;5054495;28;20463;-63
2021/07/08 04:47:39;;;;;;;1.00;0.20;;;;;;;-142.37;100.00;59669.53;5054598;28;20025;-62
2021/07/08 04:50:08;;;;;;;0.45;0.10;;;;;;;-142.37;100.00;59669.53;5054337;28;20637;-63
2021/07/08 04:52:34;;;;;;;0.55;0.10;;;;;;;-142.37;100.00;59669.53;5054792;28;20415;-62
2021/07/08 04:54:59;;;;;;;0.30;0.10;;;;;;;-142.37;100.00;59669.53;5054325;28;20053;-62
2021/07/08 04:57:24;;;;;;;1.52;0.38;;;;;;;-142.37;100.00;59669.53;5054272;28;20456;-61
2021/07/08 04:59:50;;;;;;;1.40;0.20;;;;;;;-142.37;100.00;59669.53;5054218;28;20498;-63
2021/07/08 05:02:15;;;;;;;0.85;0.20;;;;;;;-142.37;100.00;59669.53;5054273;28;20060;-62
2021/07/08 05:04:41;;;;;;;0.65;0.30;;;;;;;-142.37;100.00;59669.53;5054187;28;20021;-62
2021/07/08 05:07:07;;;;;;;1.00;0.20;;;;;;;-142.37;100.00;59669.53;5054216;28;20052;-64
2021/07/08 05:09:32;;;;;;;1.15;0.45;;;;;;;-142.37;100.00;59669.53;5054208;28;20044;-62
2021/07/08 05:11:57;;;;;;;1.02;0.40;;;;;;;-142.37;100.00;59669.53;5054017;28;20025;-62
2021/07/08 05:14:23;;;;;;;2.45;0.32;;;;;;;-142.37;100.00;59669.53;5054235;28;20505;-62
2021/07/08 05:16:48;;;;;;;0.40;0.08;;;;;;;-142.37;100.00;59669.53;5053646;28;20013;-64
2021/07/08 05:19:13;;;;;;;0.43;0.20;;;;;;;-142.37;100.00;59669.53;5053952;28;20075;-63
2021/07/08 05:21:46;;;;;;;0.00;0.00;;;;;;;-142.37;100.00;59669.53;5053858;28;20021;-62
2021/07/08 05:24:12;;;;;;;0.32;0.08;;;;;;;-142.37;100.00;59669.53;5053817;28;20033;-63
2021/07/08 05:26:37;;;;;;;1.77;0.10;;;;;;;-142.37;100.00;59669.53;5053865;28;20067;-63
2021/07/08 05:29:03;;;;;;;0.77;0.20;;;;;;;-142.37;100.00;59669.53;5052449;28;20049;-63
2021/07/08 05:31:28;;;;;;;0.35;0.00;;;;;;;-142.37;100.00;59669.53;5053748;28;20051;-62
2021/07/08 05:33:53;;;;;;;0.57;0.20;;;;;;;-142.37;100.00;59669.53;5053607;28;20017;-64
2021/07/08 05:36:19;;;;;;;1.08;0.25;;;;;;;-142.37;100.00;59669.53;5053126;28;20367;-62
2021/07/08 05:38:44;;;;;;;0.10;0.10;;;;;;;-142.37;100.00;59669.53;5053632;28;20039;-62
2021/07/08 05:41:09;;;;;;;0.10;0.10;;;;;;;-142.37;100.00;59669.53;5053650;28;20025;-64
2021/07/08 05:43:35;;;;;;;0.47;0.10;;;;;;;-142.37;100.00;59669.53;5053612;28;20021;-64
2021/07/08 05:46:00;;;;;;;0.63;0.20;;;;;;;-142.37;100.00;59669.53;5053228;28;20025;-63
2021/07/08 05:48:25;;;;;;;0.30;0.10;;;;;;;-142.37;100.00;59669.53;5053407;28;20071;-62
2021/07/08 05:50:51;;;;;;;1.27;0.30;;;;;;;-142.37;100.00;59669.53;5053438;28;20052;-64
2021/07/08 05:53:18;;;;;;;1.17;0.10;;;;;;;-142.37;100.00;59669.53;5053252;28;20112;-64
2021/07/08 05:55:43;;;;;;;0.55;0.40;;;;;;;-142.37;100.00;59669.53;5053433;28;20447;-63
2021/07/08 05:58:08;;;;;;;0.70;0.20;;;;;;;-142.37;100.00;59669.53;5053011;28;20082;-61
2021/07/08 06:00:34;;;;;;;0.25;0.10;;;;;;;-142.37;100.00;59669.53;5053268;28;20021;-63
2021/07/08 06:02:59;;;;;;;1.58;0.10;;;;;;;-142.37;100.00;59669.53;5053186;28;20028;-63
2021/07/08 06:05:25;;;;;;;0.38;0.10;;;;;;;-142.37;100.00;59669.53;5052966;28;20023;-62
2021/07/08 06:07:50;;;;;;;0.28;0.17;;;;;;;-142.37;100.00;59669.53;5052763;28;20037;-64
2021/07/08 06:10:16;;;;;;;1.48;0.10;;;;;;;-142.37;100.00;59669.53;5053025;28;20052;-63
2021/07/08 06:12:42;;;;;;;0.65;0.10;;;;;;;-142.37;100.00;59669.53;5052811;28;20064;-64
2021/07/08 06:15:08;;;;;;;0.22;0.10;;;;;;;-142.37;100.00;59669.53;5053121;28;20090;-64
2021/07/08 06:17:33;;;;;;;0.55;0.10;;;;;;;-142.37;100.00;59669.53;5053051;28;20032;-66
2021/07/08 06:19:59;;;;;;;0.40;0.10;;;;;;;-142.37;100.00;59669.53;5052561;28;20021;-65
2021/07/08 06:22:24;;;;;;;2.03;0.20;;;;;;;-142.37;100.00;59669.53;5052506;28;20108;-64
2021/07/08 06:24:49;;;;;;;0.55;0.10;;;;;;;-142.37;100.00;59669.53;5052914;28;20024;-64
2021/07/08 06:27:15;;;;;;;0.50;0.20;;;;;;;-142.37;100.00;59669.53;5052396;28;20028;-66
2021/07/08 06:29:43;;;;;;;1.40;0.20;;;;;;;-142.37;100.00;59669.53;5052928;28;20033;-64
2021/07/08 06:32:09;;;;;;;1.60;0.32;;;;;;;-142.37;100.00;59669.53;5052218;28;20055;-64
2021/07/08 06:34:35;;;;;;;1.23;0.30;;;;;;;-142.37;100.00;59669.53;5052707;28;20460;-65
2021/07/08 06:37:00;;;;;;;0.95;0.20;;;;;;;-142.37;100.00;59669.53;5052574;28;20032;-65
2021/07/08 06:39:26;;;;;;;0.47;0.10;;;;;;;-142.37;100.00;59669.53;5051791;28;20025;-66
2021/07/08 06:41:51;;;;;;;0.47;0.10;;;;;;;-142.37;100.00;59669.53;5056282;28;20380;-65
2021/07/08 06:44:16;;;;;;;0.70;0.10;;;;;;;-142.37;100.00;59669.53;5055619;28;20139;-66
2021/07/08 06:46:43;;;;;;;1.52;0.10;;;;;;;-142.37;100.00;59669.53;5049265;28;20398;-65
2021/07/08 06:49:09;;;;;;;0.57;0.22;;;;;;;-142.37;100.00;59669.53;5055347;28;20090;-64
2021/07/08 06:51:34;;;;;;;1.60;0.20;;;;;;;-142.37;100.00;59669.53;5056204;28;20040;-65
2021/07/08 06:54:01;;;;;;;0.65;0.10;;;;;;;-142.37;100.00;59669.53;5051320;28;20029;-65
2021/07/08 06:56:27;;;;;;;0.30;0.20;;;;;;;-142.37;100.00;59669.53;5050266;28;20029;-63
2021/07/08 06:58:52;;;;;;;0.73;0.20;;;;;;;-142.37;100.00;59669.53;5053377;28;20092;-63
2021/07/08 07:01:18;;;;;;;1.42;0.20;;;;;;;-142.37;100.00;59669.53;5056532;28;20388;-64
2021/07/08 07:03:43;;;;;;;0.45;0.17;;;;;;;-142.37;100.00;59669.53;5056120;28;20029;-63
2021/07/08 07:06:09;;;;;;;1.25;0.30;;;;;;;-142.37;100.00;59669.53;5055909;28;20021;-63
2021/07/08 07:08:34;;;;;;;0.57;0.28;;;;;;;-142.37;100.00;59669.53;5055437;28;20032;-63
2021/07/08 07:11:00;;;;;;;0.50;0.15;;;;;;;-142.37;100.00;59669.53;5055345;28;20460;-64
2021/07/08 07:13:25;;;;;;;0.45;0.25;;;;;;;-142.37;100.00;59669.53;5056180;28;20024;-64
2021/07/08 07:15:50;;;;;;;0.45;0.25;;;;;;;-142.37;100.00;59669.53;5055911;28;20361;-63
2021/07/08 07:18:16;;;;;;;0.60;0.17;;;;;;;-142.37;100.00;59669.53;5056319;28;20468;-64
2021/07/08 07:20:41;;;;;;;0.65;0.25;;;;;;;-142.37;100.00;59669.53;5055666;28;20072;-64
2021/07/08 07:23:06;;;;;;;1.95;0.45;;;;;;;-142.37;100.00;59669.53;5055949;28;20403;-64
2021/07/08 07:25:39;;;;;;;1.23;0.47;;;;;;;-142.37;100.00;59669.53;5055960;28;20029;-64
2021/07/08 07:28:04;;;;;;;0.93;0.30;;;;;;;-142.37;100.00;59669.53;5055453;28;20021;-64
2021/07/08 07:30:30;;;;;;;0.47;0.38;;;;;;;-142.37;100.00;59669.53;5055538;28;20047;-64
2021/07/08 07:32:55;;;;;;;2.22;0.30;;;;;;;-142.37;100.00;59669.53;5056004;28;20087;-64
2021/07/08 07:35:21;;;;;;;0.68;0.40;;;;;;;-142.37;100.00;59669.53;5055960;28;20032;-64
2021/07/08 07:37:49;;;;;;;0.70;0.25;;;;;;;-142.37;100.00;59669.53;5056041;28;20036;-64
2021/07/08 07:40:15;;;;;;;1.02;0.43;;;;;;;-142.37;100.00;59669.53;5055698;28;20028;-64
2021/07/08 07:42:41;;;;;;;1.08;0.32;;;;;;;-142.37;100.00;59669.53;5055419;28;20075;-64
2021/07/08 07:45:07;;;;;;;0.57;0.30;;;;;;;-142.37;100.00;59669.53;5054814;28;20047;-65
2021/07/08 07:47:33;;;;;;;0.65;0.30;;;;;;;-142.37;100.00;59669.53;5055709;28;20086;-64
2021/07/08 07:49:59;;;;;;;1.17;0.30;;;;;;;-142.37;100.00;59669.53;5055405;28;20448;-64
2021/07/08 07:52:25;;;;;;;0.93;0.40;;;;;;;-142.37;100.00;59669.53;5052726;28;20120;-63
2021/07/08 07:54:50;;;;;;;1.50;0.70;;;;;;;-142.37;100.00;59669.53;5053677;28;20103;-65
2021/07/08 07:57:16;;;;;;;1.60;0.35;;;;;;;-142.37;100.00;59669.53;5049994;28;20527;-64
2021/07/08 07:59:41;;;;;;;1.23;0.60;;;;;;;-142.37;100.00;59669.53;5055260;28;20048;-64
2021/07/08 08:02:13;;;;;;;2.35;0.80;;;;;;;-142.37;100.00;59669.53;5053530;28;20223;-65
2021/07/08 08:04:45;;;;;;;1.65;0.40;;;;;;;-142.37;100.00;59669.53;5054050;28;20028;-65
2021/07/08 08:09:55;;;;;;;1.00;0.52;;;;;;;-142.37;100.00;59669.53;5055129;28;20035;-63
2021/07/08 08:12:22;;;;;;;0.98;0.28;;;;;;;-142.37;100.00;59669.53;5043558;28;20059;-64
2021/07/08 08:14:48;;;;;;;0.73;0.22;;;;;;;-142.37;100.00;59669.53;5054908;28;20039;-65
2021/07/08 08:17:13;;;;;;;1.08;0.30;;;;;;;-142.37;100.00;59669.53;5054175;28;20028;-63
2021/07/08 08:19:39;;;;;;;1.35;0.40;;;;;;;-142.37;100.00;59669.53;5053528;28;20029;-63
2021/07/08 08:22:06;;;;;;;0.73;0.40;;;;;;;-142.37;100.00;59669.53;5054968;28;20028;-64
2021/07/08 08:24:31;;;;;;;1.55;0.57;;;;;;;-142.37;100.00;59669.53;5052655;28;20550;-64
2021/07/08 08:26:56;;;;;;;1.15;0.40;;;;;;;-142.37;100.00;59669.53;5033579;28;20034;-64
2021/07/08 08:29:24;;;;;;;0.85;0.30;;;;;;;-142.37;100.00;59669.53;5034732;28;20108;-64
2021/07/08 08:31:50;;;;;;;1.30;0.43;;;;;;;-142.37;100.00;59669.53;5034587;28;20104;-64
2021/07/08 08:34:15;;;;;;;1.27;0.25;;;;;;;-142.37;100.00;59669.53;5050565;28;20060;-64
2021/07/08 08:36:41;;;;;;;0.70;0.40;;;;;;;-142.37;100.00;59669.53;5050881;28;20025;-64
2021/07/08 08:39:06;;;;;;;1.25;0.57;;;;;;;-142.37;100.00;59669.53;5034399;28;20031;-65
2021/07/08 08:41:35;;;;;;;3.03;0.52;;;;;;;-142.37;100.00;59669.53;5047833;28;20040;-64
2021/07/08 08:44:00;;;;;;;1.17;0.50;;;;;;;-142.37;100.00;59669.53;5053317;28;20057;-64
2021/07/08 08:46:27;;;;;;;1.20;0.40;;;;;;;-142.37;100.00;59669.53;5053700;28;20091;-63
2021/07/08 08:48:52;;;;;;;1.40;0.60;;;;;;;-142.37;100.00;59669.53;5040845;28;20044;-65
2021/07/08 08:51:17;;;;;;;1.40;0.82;;;;;;;-142.37;100.00;59669.53;5034383;28;20026;-64
2021/07/08 08:53:43;;;;;;;1.52;0.50;;;;;;;-142.37;100.00;59669.53;5035685;28;20480;-63
2021/07/08 08:56:08;;;;;;;0.85;0.40;;;;;;;-142.37;100.00;59669.53;5039339;28;20083;-64
2021/07/08 08:58:34;;;;;;;2.22;0.43;;;;;;;-142.37;100.00;59669.53;5050834;23;20072;-65
2021/07/08 09:01:02;;;;;;;1.00;0.40;;;;;;;-142.37;100.00;59669.53;5042236;28;20028;-64
2021/07/08 09:03:30;;;;;;;1.75;0.45;;;;;;;-142.37;100.00;59669.53;5050602;28;20021;-63
2021/07/08 09:06:05;;;;;;;0.82;0.25;;;;;;;-142.37;100.00;59669.53;5048791;28;20155;-64
2021/07/08 09:08:32;;;;;;;1.55;0.43;;;;;;;-142.37;100.00;59669.53;5053237;28;20044;-64
2021/07/08 09:11:09;;;;;;;0.80;0.40;;;;;;;-142.37;100.00;59669.53;5045947;28;20025;-63
2021/07/08 09:13:42;;;;;;;0.45;0.30;;;;;;;-142.37;100.00;59669.53;5050547;28;20052;-63
2021/07/08 09:16:11;;;;;;;0.57;0.20;;;;;;;-142.37;100.00;59669.53;5053374;28;20043;-64
2021/07/08 09:18:37;;;;;;;0.40;0.20;;;;;;;-142.37;100.00;59669.53;5052562;28;20063;-65
2021/07/08 09:21:20;;;;;;;1.88;0.30;;;;;;;-142.37;100.00;59669.53;5053059;28;20060;-63
2021/07/08 09:24:29;;;;;;;0.38;0.30;;;;;;;-142.37;100.00;59669.53;5045360;28;20111;-64
2021/07/08 09:27:03;;;;;;;0.47;0.15;;;;;;;-142.37;100.00;59669.53;4951097;29;20042;-63
2021/07/08 09:29:37;;;;;;;0.70;0.52;;;;;;;-142.37;100.00;59669.53;4942671;29;20629;-64
2021/07/08 09:32:04;;;;;;;;;;;;;;;-142.37;100.00;59669.53;4953389;29;20039;-64
2021/07/08 09:34:32;;;;;;;0.45;0.22;;;;;;;-142.37;100.00;59669.53;4942765;29;19914;-64
2021/07/08 09:37:07;;;;;;;0.65;0.20;;;;;;;-142.37;100.00;59669.53;4950995;29;20031;-64
2021/07/08 09:39:35;;;;;;;1.33;0.20;;;;;;;-142.37;100.00;59669.53;4953192;29;20038;-63
2021/07/08 09:42:01;;;;;;;1.60;0.50;;;;;;;-142.37;100.00;59669.53;4953152;29;20502;-64
2021/07/08 09:44:28;;;;;;;0.70;0.30;;;;;;;-142.37;100.00;59669.53;4952112;29;20062;-64
2021/07/08 09:46:55;;;;;;;1.00;0.38;;;;;;;-142.37;100.00;59669.53;4954123;28;20035;-64
2021/07/08 09:49:22;;;;;;;0.30;0.15;;;;;;;-142.37;100.00;59669.53;4950155;28;20042;-65
2021/07/08 09:51:47;;;;;;;0.65;0.10;;;;;;;-142.37;100.00;59669.53;4934325;29;20501;-65
2021/07/08 09:54:25;;;;;;;1.85;0.30;;;;;;;-142.37;100.00;59669.53;4950939;29;20051;-65
2021/07/08 09:56:54;;;;;;;0.77;0.20;;;;;;;-142.37;100.00;59669.53;4952866;29;20031;-64
2021/07/08 09:59:21;;;;;;;0.17;0.10;;;;;;;-142.37;100.00;59669.53;4941707;29;20521;-66
2021/07/08 10:01:56;;;;;;;0.90;0.20;;;;;;;-142.37;100.00;59669.53;5027252;28;20040;-65
2021/07/08 10:04:22;;;;;;;2.55;0.40;;;;;;;-142.37;100.00;59669.53;5033098;28;20043;-65
2021/07/08 10:06:48;;;;;;;0.45;0.20;;;;;;;-142.37;100.00;59669.53;5033011;28;20064;-65
2021/07/08 10:09:18;;;;;;;0.77;0.22;;;;;;;-142.37;100.00;59669.53;5034198;28;20018;-66
2021/07/08 10:11:52;;;;;;;0.52;0.15;;;;;;;-142.37;100.00;59669.53;5043000;28;20072;-64
2021/07/08 10:14:18;;;;;;;1.00;0.20;;;;;;;-142.37;100.00;59669.53;5052671;28;20109;-64
2021/07/08 10:16:54;;;;;;;0.70;0.25;;;;;;;-142.37;100.00;59669.53;5051936;28;20611;-66
2021/07/08 10:19:23;;;;;;;0.57;0.22;;;;;;;-142.37;100.00;59669.53;5033192;28;20060;-66
2021/07/08 10:21:51;;;;;;;1.17;0.20;;;;;;;-142.37;100.00;59669.53;5052502;28;20487;-64
2021/07/08 10:24:18;;;;;;;0.35;0.15;;;;;;;-142.37;100.00;59669.53;5040254;28;20030;-65
2021/07/08 10:26:44;;;;;;;2.85;0.52;;;;;;;-142.37;100.00;59669.53;5033118;28;20468;-66
2021/07/08 10:29:12;;;;;;;0.95;0.15;;;;;;;-142.37;100.00;59669.53;5032996;28;20721;-65
2021/07/08 10:31:41;;;;;;;1.27;0.47;;;;;;;-142.37;100.00;59669.53;5032917;28;20052;-64
2021/07/08 10:34:15;;;;;;;0.68;0.20;;;;;;;-142.37;100.00;59669.53;5033912;28;20404;-65
2021/07/08 10:36:44;;;;;;;0.40;0.10;;;;;;;-142.37;100.00;59669.53;5032970;28;20024;-65
2021/07/08 10:39:14;;;;;;;0.28;0.20;;;;;;;-142.37;100.00;59669.53;5039194;28;20363;-64
2021/07/08 10:41:42;;;;;;;0.82;0.17;;;;;;;-142.37;100.00;59669.53;5052580;28;20044;-64
2021/07/08 10:44:35;;;;;;;1.02;0.22;;;;;;;-142.37;100.00;59669.53;5052531;28;20032;-66
2021/07/08 10:47:02;;;;;;;0.73;0.10;;;;;;;-142.37;100.00;59669.53;5052546;28;20047;-65
2021/07/08 10:49:39;;;;;;;1.38;0.32;;;;;;;-142.37;100.00;59669.53;5040773;28;20030;-64
2021/07/08 10:52:12;;;;;;;2.15;0.22;;;;;;;-142.37;100.00;59669.53;5032688;28;20064;-65
2021/07/08 10:54:47;;;;;;;1.55;0.52;;;;;;;-142.37;100.00;59669.53;5032537;28;20026;-65
2021/07/08 10:57:38;;;;;;;0.68;0.20;;;;;;;-142.37;100.00;59669.53;5032601;28;20056;-64
2021/07/08 11:00:06;;;;;;;0.40;0.17;;;;;;;-142.37;100.00;59669.53;5048549;28;20475;-65
2021/07/08 11:02:47;;;;;;;0.70;0.30;;;;;;;-142.37;100.00;59669.53;5052531;28;20043;-66
2021/07/08 11:05:13;;;;;;;1.65;0.30;;;;;;;-142.37;100.00;59669.53;5046786;28;20033;-64
2021/07/08 11:07:46;;;;;;;0.55;0.10;;;;;;;-142.37;100.00;59669.53;5032853;28;20435;-64
2021/07/08 11:10:12;;;;;;;0.20;0.20;;;;;;;-142.37;100.00;59669.53;5032567;28;20108;-64